x

West Santa Barbara 38 Nm West Of Santa Barbara, Ca (46054) Wave Buoy

4:50pm - Fri 11th Jul 2014 All times are PDT. -7 hours from GMT.

  • Sig Wave height 3.9ft
  • Swell Direction
  • Peak Period 9s
  • Average Period 5s
  • Wind
    22mph, 27mph gusts
  • Sea Temp 63°f
  • Air Temp 62°f
  • Sea Pressure 1015.6mb
  • West Santa Barbara  38 Nm West Of Santa Barbara, Ca
  • West Santa Barbara  38 Nm West Of Santa Barbara, Ca

More Historic Weather Station data

Upgrade to MSW Pro to gain access to the past 30 days of data for over 8000 Wavebouys and Weather Stations around the globe.

Join Pro

Comparision Forecast

View Surf forecast
   
Fri 07/11 4:50pm 4ft 9s 5s 22 27 mph 1015.6mb 63f 62f
3:50pm 4ft 9s 5s 22 27 mph 1015.8mb 63f 62f
2:50pm 4ft 9s 5s 20 22 mph 1016.2mb 63f 62f
1:50pm 4.5ft 9s 5s 18 22 mph 1016.4mb 63f 62f
12:50pm 4ft 9s 6s 18 20 mph 1016.6mb 63f 62f
11:50am 4.5ft 10s 7s 16 18 mph 1016.6mb 63f 62f
10:50am 4ft 10s 7s 13 18 mph 1016.3mb 63f 62f
9:50am 4ft 9s 7s 13 16 mph 1016mb 63f 62f
8:50am 3.5ft 9s 6s 11 13 mph 1015.9mb 63f 61f
7:50am 4.5ft 10s 7s 13 16 mph 1015.5mb 63f 61f
6:50am 4ft 10s 6s 13 18 mph 1015.1mb 63f 61f
5:50am 3.5ft 10s 6s 13 16 mph 1014.8mb 62f 61f
4:50am 3.5ft 10s 6s 16 18 mph 1014.4mb 63f 61f
3:50am 3.5ft 9s 5s 16 18 mph 1014.3mb 63f 61f
2:50am 4ft 9s 6s 18 22 mph 1014mb 63f 61f
1:50am 4ft 9s 5s 18 20 mph 1013.9mb 64f 62f
12:50am 3.5ft 9s 5s 18 22 mph 1013.8mb 64f 62f
Thu 07/10 11:50pm 3.5ft 11s 5s 20 22 mph 1014mb 65f 62f
10:50pm 3.5ft 9s 5s 20 25 mph 1014.2mb 65f 62f
9:50pm 3.5ft 10s 5s 18 22 mph 1014mb 65f 62f
8:50pm 3.5ft 8s 5s 18 22 mph 1013.4mb 65f 62f
7:50pm 3.5ft 10s 5s 18 22 mph 1013.3mb 65f 62f
6:50pm 3.5ft 10s 6s 16 20 mph 1013.2mb 65f 62f
5:50pm 3.5ft 9s 6s 16 18 mph 1013.1mb 65f 62f
4:50pm 3.5ft 8s 6s 13 16 mph 1013.3mb 65f 62f
3:50pm 4ft 9s 7s 11 13 mph 1013.6mb 65f 62f
2:50pm 4ft 9s 7s 9 11 mph 1014mb 65f 62f
1:50pm 4ft 9s 7s 9 13 mph 1014.3mb 65f 61f
12:50pm 4ft 9s 7s 11 13 mph 1014.5mb 65f 61f
11:50am 4ft 9s 7s 9 11 mph 1014.8mb 65f 60f
10:50am 3.5ft 9s 7s 9 11 mph 1014.8mb 65f 60f
9:50am 3.5ft 9s 7s 9 11 mph 1015mb 65f 60f
8:50am 3.5ft 9s 7s 9 13 mph 1015.1mb 65f 60f
7:50am 3.5ft 9s 7s 9 11 mph 1015mb 65f 60f
6:50am 4ft 8s 6s 11 13 mph 1014.4mb 65f 59f
5:50am 4ft 9s 6s 13 16 mph 1013.8mb 65f 60f
4:50am 4ft 9s 6s 11 16 mph 1013.6mb 65f 60f
3:50am 4.5ft 9s 6s 13 18 mph 1013.3mb 65f 60f
2:50am 4ft 10s 6s 16 18 mph 1013.6mb 65f 60f
1:50am 4.5ft 9s 6s 16 20 mph 1013.5mb 65f 60f
12:50am 4.5ft 8s 5s 18 20 mph 1013.5mb 66f 60f
Wed 07/09 11:50pm 4.5ft 10s 5s 20 25 mph 1013.5mb 64f 60f
10:50pm 4.5ft 9s 5s 18 22 mph 1013.4mb 64f 60f
9:50pm 4ft 8s 5s 22 27 mph 1012.9mb 64f 60f
8:50pm 3.5ft 15s 5s 22 27 mph 1012.2mb 64f 60f
7:50pm 4.5ft 15s 5s 22 27 mph 1012.1mb 64f 61f
6:50pm 4.5ft 10s 5s 22 27 mph 1012.1mb 65f 61f
5:50pm 5ft 9s 5s 22 27 mph 1012.3mb 65f 61f
4:50pm 4.5ft 9s 5s 22 25 mph 1012.7mb 65f 61f
3:50pm 4.5ft 10s 5s 20 25 mph 1013.3mb 65f 61f
2:50pm 5ft 9s 6s 18 22 mph 1014mb 65f 61f
1:50pm 4.5ft 9s 6s 18 20 mph 1014.5mb 65f 61f
12:50pm 4.5ft 9s 7s 13 18 mph 1015.1mb 65f 60f
11:50am 4.5ft 9s 7s 11 16 mph 1015.5mb 64f 60f
10:50am 4ft 10s 7s 11 13 mph 1015.7mb 64f 59f
9:50am 4.5ft 9s 7s 11 13 mph 1015.5mb 64f 59f
8:50am 4.5ft 9s 7s 13 18 mph 1015.5mb 64f 59f
7:50am 4.5ft 10s 7s 11 13 mph 1014.9mb 64f 59f
6:50am 4.5ft 9s 6s 13 16 mph 1014.8mb 64f 59f
5:50am 4.5ft 9s 6s 13 16 mph 1014.5mb 64f 59f
4:50am 5ft 9s 6s 13 16 mph 1014.2mb 64f 59f
3:50am 5ft 9s 6s 16 18 mph 1014.2mb 64f 59f
2:50am 5ft 8s 6s 16 18 mph 1014.2mb 64f 59f
1:50am 5ft 9s 6s 18 22 mph 1014mb 63f 60f
12:50am 6ft 8s 6s 20 22 mph 1014.1mb 64f 59f
Tue 07/08 11:50pm 5.5ft 9s 6s 22 27 mph 1013.9mb 64f 59f
10:50pm 5.5ft 9s 6s 22 27 mph 1013.6mb 64f 59f
9:50pm 6ft 16s 5s 25 29 mph 1013mb 64f 60f
8:50pm 6ft 9s 5s 27 31 mph 1012.3mb 64f 59f
7:50pm 6ft 8s 6s 27 31 mph 1011.7mb 64f 60f
6:50pm 5ft 9s 5s 25 29 mph 1011.8mb 64f 60f
5:50pm 5.5ft 8s 6s 22 27 mph 1011.9mb 64f 60f
4:50pm 5ft 9s 6s 20 22 mph 1012.7mb 65f 60f
3:50pm 5ft 8s 7s 16 18 mph 1013.5mb 65f 60f
2:50pm 5ft 8s 7s 11 13 mph 1014.2mb 65f 59f
1:50pm 5.5ft 8s 7s 11 16 mph 1014.8mb 65f 59f
12:50pm 5.5ft 9s 7s 11 13 mph 1014.9mb 65f 59f
11:50am 5ft 8s 7s 13 16 mph 1014.8mb 65f 59f
10:50am 5ft 8s 7s 11 13 mph 1014.5mb 64f 59f
9:50am 5ft 8s 7s 11 13 mph 1014.3mb 64f 59f
8:50am 5.5ft 8s 7s 13 16 mph 1014mb 64f 59f
7:50am 5ft 9s 6s 16 18 mph 1013.3mb 64f 59f
6:50am 5ft 8s 6s 13 16 mph 1012.8mb 63f 58f
5:50am 5ft 8s 6s 13 16 mph 1012.3mb 63f 58f
4:50am 5.5ft 16s 6s 16 18 mph 1011.9mb 63f 58f
3:50am 5ft 16s 6s 18 20 mph 1011.6mb 63f 58f
2:50am 5ft 8s 6s 18 20 mph 1011.6mb 64f 58f
1:50am 6ft 9s 6s 18 22 mph 1011.7mb 64f 58f
12:50am 5.5ft 9s 6s 20 25 mph 1012mb 64f 58f